createdAt,value
2022-12-15T00:01:11.457Z,92909.75
2022-12-15T00:02:26.846Z,92906.84
2022-12-15T00:03:42.430Z,92908.84
2022-12-15T00:04:57.815Z,92861.84
2022-12-15T00:06:12.712Z,92897.88
2022-12-15T00:07:28.030Z,92884.31
2022-12-15T00:08:43.377Z,92888.16
2022-12-15T00:09:58.277Z,92890.00
2022-12-15T00:11:13.866Z,92879.06
2022-12-15T00:12:29.156Z,92891.97
2022-12-15T00:13:44.106Z,92900.81
2022-12-15T00:14:59.225Z,92906.06
2022-12-15T00:16:14.276Z,92894.84
2022-12-15T00:17:29.361Z,92906.66
2022-12-15T00:18:44.343Z,92927.03
2022-12-15T00:19:59.634Z,92931.28
2022-12-15T00:21:18.733Z,92938.38
2022-12-15T00:22:33.859Z,92901.00
2022-12-15T00:23:48.830Z,92928.56
2022-12-15T00:25:03.705Z,92922.47
2022-12-15T00:26:18.680Z,92873.00
2022-12-15T00:27:34.101Z,92913.13
2022-12-15T00:28:48.979Z,92907.69
2022-12-15T00:30:04.553Z,92905.50
2022-12-15T00:31:19.513Z,92906.72
2022-12-15T00:32:35.034Z,92908.38
2022-12-15T00:33:50.226Z,92902.97
2022-12-15T00:35:05.254Z,92902.13
2022-12-15T00:36:20.476Z,92891.78
2022-12-15T00:37:35.599Z,92901.94
2022-12-15T00:38:47.621Z,92896.22
2022-12-15T00:39:44.445Z,92887.22
2022-12-15T00:40:41.071Z,92854.53
2022-12-15T00:41:38.071Z,92879.94
2022-12-15T00:42:34.630Z,92894.25
2022-12-15T00:43:32.955Z,92893.53
2022-12-15T00:44:30.416Z,92883.41
2022-12-15T00:45:47.011Z,92883.47
2022-12-15T00:46:55.499Z,92882.34
2022-12-15T00:47:52.236Z,92877.25
2022-12-15T00:48:49.178Z,92875.19
2022-12-15T00:50:04.123Z,92874.53
2022-12-15T00:51:00.827Z,92861.28
2022-12-15T00:52:15.930Z,92856.69
2022-12-15T00:53:31.158Z,92851.34
2022-12-15T00:54:46.342Z,92842.53
2022-12-15T00:56:01.328Z,92844.34
2022-12-15T00:57:16.244Z,92835.88
2022-12-15T00:58:31.320Z,92805.34
2022-12-15T00:59:46.188Z,92838.66
2022-12-15T01:01:01.250Z,92852.19
2022-12-15T01:02:16.325Z,92879.22
2022-12-15T01:03:34.289Z,92863.44
2022-12-15T01:04:50.251Z,92872.88
2022-12-15T01:06:05.486Z,92876.47
2022-12-15T01:07:20.644Z,92866.75
2022-12-15T01:08:35.634Z,92855.88
2022-12-15T01:09:50.629Z,92846.75
2022-12-15T01:11:06.040Z,92852.56
2022-12-15T01:12:21.276Z,92842.78
2022-12-15T01:13:36.315Z,92849.44
2022-12-15T01:14:52.258Z,92857.13
2022-12-15T01:16:07.149Z,92843.38
2022-12-15T01:17:22.388Z,92848.09
2022-12-15T01:18:37.331Z,92845.28
2022-12-15T01:19:52.745Z,92849.19
2022-12-15T01:21:02.699Z,92849.16
2022-12-15T01:21:59.330Z,92853.06
2022-12-15T01:22:56.207Z,92864.28
2022-12-15T01:23:53.591Z,92868.72
2022-12-15T01:24:50.287Z,92865.00
2022-12-15T01:25:46.830Z,92867.94
2022-12-15T01:26:46.444Z,92866.19
2022-12-15T01:27:44.118Z,92859.16
2022-12-15T01:28:40.853Z,92786.56
2022-12-15T01:29:37.872Z,92843.28
2022-12-15T01:30:34.468Z,92869.78
2022-12-15T01:31:31.116Z,92850.66
2022-12-15T01:32:27.956Z,92821.66
2022-12-15T01:33:24.575Z,92840.84
2022-12-15T01:34:22.780Z,92789.41
2022-12-15T01:35:20.341Z,92825.41
2022-12-15T01:36:16.916Z,92838.94
2022-12-15T01:37:13.570Z,92850.94
2022-12-15T01:38:11.059Z,92850.16
2022-12-15T01:39:07.677Z,92845.59
2022-12-15T01:40:24.664Z,92842.84
2022-12-15T01:41:21.459Z,92832.06
2022-12-15T01:42:18.416Z,92835.44
2022-12-15T01:43:18.124Z,92835.13
2022-12-15T01:44:21.885Z,92827.59
2022-12-15T01:45:24.210Z,92826.22
2022-12-15T01:46:23.471Z,92825.16
2022-12-15T01:47:25.110Z,92806.59
2022-12-15T01:48:27.591Z,92810.78
2022-12-15T01:49:26.805Z,92819.50
2022-12-15T01:50:24.784Z,92821.94
2022-12-15T01:51:26.120Z,92772.47
2022-12-15T01:52:22.857Z,92839.28
2022-12-15T01:53:19.515Z,92839.88
2022-12-15T01:54:23.929Z,92832.00
2022-12-15T01:55:25.158Z,92769.38
2022-12-15T01:56:24.952Z,92850.41
2022-12-15T01:57:29.015Z,92841.31
2022-12-15T01:58:26.611Z,92799.91
2022-12-15T01:59:34.089Z,92841.84
2022-12-15T02:00:31.004Z,92799.63
2022-12-15T02:01:28.045Z,92827.44
2022-12-15T02:02:28.132Z,92818.03
2022-12-15T02:03:24.908Z,92813.41
2022-12-15T02:04:23.830Z,92804.31
2022-12-15T02:05:21.596Z,92750.84
2022-12-15T02:06:21.758Z,92746.22
2022-12-15T02:07:19.753Z,92790.72
2022-12-15T02:08:17.189Z,92787.91
2022-12-15T02:09:14.274Z,92792.22
2022-12-15T02:10:12.004Z,92715.28
2022-12-15T02:11:38.331Z,92786.97
2022-12-15T02:12:43.807Z,92783.13
2022-12-15T02:13:46.788Z,92774.16
2022-12-15T02:14:58.399Z,92790.72
2022-12-15T02:16:14.390Z,92798.69
2022-12-15T02:17:37.263Z,92788.72
2022-12-15T02:18:40.370Z,92778.44
2022-12-15T02:20:04.867Z,92785.47
2022-12-15T02:21:11.277Z,92793.00
2022-12-15T02:22:49.565Z,92788.09
2022-12-15T02:24:10.727Z,92799.66
2022-12-15T02:25:45.967Z,92790.41
2022-12-15T02:26:59.517Z,92791.81
2022-12-15T02:28:06.516Z,92788.56
2022-12-15T02:29:18.408Z,92782.41
2022-12-15T02:30:33.216Z,92775.75
2022-12-15T02:31:50.412Z,92750.88
2022-12-15T02:32:50.216Z,92780.88
2022-12-15T02:33:53.365Z,92774.38
2022-12-15T02:34:57.935Z,92777.31
2022-12-15T02:36:07.722Z,92784.56
2022-12-15T02:37:11.563Z,92780.09
2022-12-15T02:38:08.954Z,92795.25
2022-12-15T02:39:06.302Z,92752.59
2022-12-15T02:40:05.617Z,92784.72
2022-12-15T02:41:04.431Z,92794.59
2022-12-15T02:42:00.990Z,92797.22
2022-12-15T02:43:02.972Z,92794.13
2022-12-15T02:44:01.937Z,92803.56
2022-12-15T02:45:03.181Z,92755.81
2022-12-15T02:46:31.316Z,92800.78
2022-12-15T02:47:33.824Z,92791.25
2022-12-15T02:48:34.416Z,92789.06
2022-12-15T02:49:45.950Z,92805.75
2022-12-15T02:50:58.373Z,92806.66
2022-12-15T02:52:31.491Z,92818.06
2022-12-15T02:53:46.379Z,92815.00
2022-12-15T02:54:48.839Z,92800.00
2022-12-15T02:56:00.852Z,92809.00
2022-12-15T02:57:40.894Z,92812.72
2022-12-15T02:58:37.490Z,92820.25
2022-12-15T02:59:43.020Z,92811.91
2022-12-15T03:00:45.564Z,92808.00
2022-12-15T03:02:03.682Z,92801.69
2022-12-15T03:03:00.873Z,92807.75
2022-12-15T03:03:59.857Z,92816.28
2022-12-15T03:04:57.837Z,92821.78
2022-12-15T03:05:55.500Z,92835.50
2022-12-15T03:07:01.129Z,92837.38
2022-12-15T03:07:58.397Z,92793.47
2022-12-15T03:08:54.996Z,92815.59
2022-12-15T03:09:52.198Z,92838.47
2022-12-15T03:10:53.018Z,92860.69
2022-12-15T03:11:49.866Z,92848.75
2022-12-15T03:12:46.588Z,92834.06
2022-12-15T03:13:43.244Z,92816.22
2022-12-15T03:14:39.877Z,92814.44
2022-12-15T03:15:36.881Z,92826.00
2022-12-15T03:16:33.722Z,92837.75
2022-12-15T03:17:30.387Z,92834.66
2022-12-15T03:18:27.246Z,92829.41
2022-12-15T03:19:24.466Z,92816.47
2022-12-15T03:20:21.051Z,92797.50
2022-12-15T03:21:17.711Z,92803.38
2022-12-15T03:22:14.291Z,92798.28
2022-12-15T03:23:10.838Z,92809.91
2022-12-15T03:24:07.702Z,92816.69
2022-12-15T03:25:05.208Z,92831.06
2022-12-15T03:26:01.804Z,92846.97
2022-12-15T03:26:58.382Z,92840.91
2022-12-15T03:27:55.058Z,92836.00
2022-12-15T03:28:51.642Z,92786.41
2022-12-15T03:29:48.226Z,92800.66
2022-12-15T03:30:44.879Z,92799.25
2022-12-15T03:31:41.571Z,92805.25
2022-12-15T03:32:38.161Z,92816.84
2022-12-15T03:33:35.185Z,92823.66
2022-12-15T03:34:31.981Z,92823.31
2022-12-15T03:35:28.655Z,92824.09
2022-12-15T03:36:25.246Z,92792.69
2022-12-15T03:37:21.968Z,92817.88
2022-12-15T03:38:18.980Z,92821.03
2022-12-15T03:39:15.691Z,92828.47
2022-12-15T03:40:14.017Z,92824.75
2022-12-15T03:41:10.647Z,92814.38
2022-12-15T03:42:07.326Z,92816.53
2022-12-15T03:43:04.009Z,92806.34
2022-12-15T03:44:00.774Z,92805.72
2022-12-15T03:44:57.416Z,92808.81
2022-12-15T03:45:54.128Z,92825.22
2022-12-15T03:46:50.772Z,92796.00
2022-12-15T03:47:48.070Z,92825.66
2022-12-15T03:48:44.750Z,92826.44
2022-12-15T03:49:41.337Z,92826.00
2022-12-15T03:50:38.060Z,92812.38
2022-12-15T03:51:34.680Z,92810.38
2022-12-15T03:52:31.666Z,92805.63
2022-12-15T03:53:28.502Z,92674.94
2022-12-15T03:54:25.283Z,92814.25
2022-12-15T03:55:22.653Z,92763.13
2022-12-15T03:56:19.405Z,92821.38
2022-12-15T03:57:16.001Z,92820.91
2022-12-15T03:58:12.610Z,92816.88
2022-12-15T03:59:09.139Z,92828.63
2022-12-15T04:00:07.299Z,92821.50
2022-12-15T04:01:21.364Z,92823.69
2022-12-15T04:02:18.176Z,92815.50
2022-12-15T04:03:14.969Z,92831.09
2022-12-15T04:04:11.595Z,92831.25
2022-12-15T04:05:09.233Z,92834.50
2022-12-15T04:06:06.159Z,92835.25
2022-12-15T04:07:02.726Z,92850.75
2022-12-15T04:08:00.717Z,92833.88
2022-12-15T04:08:57.603Z,92842.09
2022-12-15T04:09:54.127Z,92845.47
2022-12-15T04:10:50.729Z,92839.75
2022-12-15T04:11:47.314Z,92849.03
2022-12-15T04:12:43.995Z,92850.91
2022-12-15T04:13:40.940Z,92832.78
2022-12-15T04:14:42.619Z,92787.16
2022-12-15T04:15:40.484Z,92825.16
2022-12-15T04:16:37.140Z,92834.44
2022-12-15T04:17:34.089Z,92837.09
2022-12-15T04:18:30.833Z,92840.94
2022-12-15T04:19:46.040Z,92833.53
2022-12-15T04:20:42.671Z,92855.97
2022-12-15T04:21:39.314Z,92823.19
2022-12-15T04:22:41.080Z,92845.94
2022-12-15T04:23:37.676Z,92866.78
2022-12-15T04:24:52.679Z,92840.53
2022-12-15T04:26:08.642Z,92843.34
2022-12-15T04:27:23.757Z,92849.41
2022-12-15T04:28:38.973Z,92864.75
2022-12-15T04:29:54.171Z,92869.81
2022-12-15T04:31:28.738Z,92871.47
2022-12-15T04:32:43.997Z,92872.50
2022-12-15T04:34:08.559Z,92851.44
2022-12-15T04:35:24.305Z,92848.69
2022-12-15T04:36:39.824Z,92853.44
2022-12-15T04:37:55.473Z,92867.53
2022-12-15T04:39:10.798Z,92860.59
2022-12-15T04:40:26.889Z,92845.09
2022-12-15T04:41:43.554Z,92845.75
2022-12-15T04:43:02.735Z,92862.28
2022-12-15T04:44:18.226Z,92843.75
2022-12-15T04:45:35.414Z,92878.25
2022-12-15T04:46:50.779Z,92875.91
2022-12-15T04:48:06.777Z,92855.03
2022-12-15T04:49:21.696Z,92855.50
2022-12-15T04:50:36.658Z,92864.47
2022-12-15T04:51:52.658Z,92874.84
2022-12-15T04:53:08.110Z,92867.41
2022-12-15T04:54:23.053Z,92874.38
2022-12-15T04:55:37.957Z,92885.16
2022-12-15T04:56:53.425Z,92893.38
2022-12-15T04:58:08.255Z,92892.13
2022-12-15T04:59:23.438Z,92888.28
2022-12-15T05:00:38.606Z,92845.41
2022-12-15T05:01:53.633Z,92880.97
2022-12-15T05:03:11.307Z,92886.28
2022-12-15T05:04:30.257Z,92889.97
2022-12-15T05:05:45.431Z,92893.81
2022-12-15T05:07:00.589Z,92908.19
2022-12-15T05:08:18.664Z,92907.25
2022-12-15T05:09:33.505Z,92899.03
2022-12-15T05:10:48.456Z,92900.00
2022-12-15T05:12:03.369Z,92886.28
2022-12-15T05:13:26.072Z,92906.81
2022-12-15T05:14:41.227Z,92904.03
2022-12-15T05:15:56.312Z,92898.16
2022-12-15T05:17:11.373Z,92905.72
2022-12-15T05:18:26.631Z,92922.09
2022-12-15T05:19:41.612Z,92923.25
2022-12-15T05:20:56.759Z,92921.16
2022-12-15T05:22:11.924Z,92922.00
2022-12-15T05:23:27.357Z,92933.22
2022-12-15T05:24:42.578Z,92945.94
2022-12-15T05:25:57.671Z,92944.41
2022-12-15T05:27:12.577Z,92937.75
2022-12-15T05:28:27.695Z,92940.84
2022-12-15T05:29:42.566Z,92950.56
2022-12-15T05:30:57.428Z,92959.09
2022-12-15T05:31:54.922Z,92964.06
2022-12-15T05:32:51.672Z,92949.66
2022-12-15T05:33:48.258Z,92961.72
2022-12-15T05:34:45.281Z,92952.44
2022-12-15T05:35:41.988Z,92947.66
2022-12-15T05:36:38.582Z,92905.84
2022-12-15T05:37:35.223Z,92953.53
2022-12-15T05:38:31.850Z,92918.91
2022-12-15T05:39:28.768Z,92957.41
2022-12-15T05:40:25.362Z,92964.84
2022-12-15T05:41:22.372Z,92954.00
2022-12-15T05:42:18.938Z,92945.81
2022-12-15T05:43:15.512Z,92915.50
2022-12-15T05:44:12.642Z,92963.28
2022-12-15T05:45:10.281Z,92964.38
2022-12-15T05:46:06.962Z,92966.69
2022-12-15T05:47:04.829Z,92956.16
2022-12-15T05:48:01.535Z,92978.47
2022-12-15T05:48:58.178Z,92986.47
2022-12-15T05:49:54.824Z,92978.44
2022-12-15T05:50:51.429Z,92942.66
2022-12-15T05:51:48.372Z,92975.44
2022-12-15T05:52:49.336Z,92974.94
2022-12-15T05:53:46.203Z,92956.28
2022-12-15T05:54:42.859Z,92975.75
2022-12-15T05:55:39.428Z,92988.88
2022-12-15T05:56:36.547Z,92992.38
2022-12-15T05:57:33.228Z,92991.66
2022-12-15T05:58:29.815Z,92991.84
2022-12-15T05:59:26.454Z,92957.38
2022-12-15T06:00:23.589Z,92998.56
2022-12-15T06:01:20.347Z,92996.72
2022-12-15T06:02:17.162Z,92996.84
2022-12-15T06:03:13.892Z,93007.06
2022-12-15T06:04:13.663Z,93004.44
2022-12-15T06:05:10.424Z,93011.53
2022-12-15T06:06:08.751Z,93007.06
2022-12-15T06:07:05.512Z,93014.03
2022-12-15T06:08:02.166Z,93022.38
2022-12-15T06:08:58.939Z,93025.16
2022-12-15T06:09:55.568Z,93019.75
2022-12-15T06:10:56.011Z,92986.78
2022-12-15T06:11:52.721Z,93035.34
2022-12-15T06:12:49.270Z,93002.94
2022-12-15T06:13:46.712Z,93005.66
2022-12-15T06:14:43.350Z,93039.44
2022-12-15T06:15:39.958Z,93032.97
2022-12-15T06:16:42.553Z,93032.50
2022-12-15T06:17:40.899Z,93040.75
2022-12-15T06:18:39.843Z,93039.81
2022-12-15T06:19:36.379Z,92873.25
2022-12-15T06:20:32.989Z,93046.72
2022-12-15T06:21:32.765Z,93053.50
2022-12-15T06:22:29.877Z,93059.44
2022-12-15T06:23:28.971Z,93053.31
2022-12-15T06:24:26.126Z,93056.50
2022-12-15T06:25:22.769Z,93049.66
2022-12-15T06:26:25.503Z,93062.13
2022-12-15T06:27:22.142Z,93038.28
2022-12-15T06:28:23.857Z,93068.97
2022-12-15T06:29:20.467Z,93072.53
2022-12-15T06:30:17.129Z,93062.19
2022-12-15T06:31:14.627Z,93064.19
2022-12-15T06:32:11.224Z,93057.66
2022-12-15T06:33:07.807Z,93052.69
2022-12-15T06:34:06.890Z,93061.44
2022-12-15T06:35:03.606Z,93069.00
2022-12-15T06:36:11.437Z,93067.47
2022-12-15T06:37:08.117Z,93057.59
2022-12-15T06:38:04.669Z,93062.72
2022-12-15T06:39:02.709Z,93059.16
2022-12-15T06:39:59.314Z,93066.97
2022-12-15T06:40:56.702Z,93056.50
2022-12-15T06:41:53.343Z,93052.97
2022-12-15T06:42:49.986Z,93058.88
2022-12-15T06:43:51.323Z,93059.38
2022-12-15T06:44:48.133Z,93058.44
2022-12-15T06:45:50.523Z,93077.91
2022-12-15T06:46:47.290Z,93074.69
2022-12-15T06:47:43.948Z,93081.22
2022-12-15T06:48:42.301Z,93086.63
2022-12-15T06:49:38.951Z,93072.28
2022-12-15T06:50:35.647Z,93092.88
2022-12-15T06:51:32.794Z,93089.44
2022-12-15T06:52:30.815Z,93081.53
2022-12-15T06:53:27.525Z,93082.81
2022-12-15T06:54:24.887Z,93065.41
2022-12-15T06:55:21.739Z,93044.59
2022-12-15T06:56:28.923Z,93058.50
2022-12-15T06:57:29.631Z,93084.34
2022-12-15T06:58:26.189Z,93042.84
2022-12-15T06:59:22.784Z,93044.19
2022-12-15T07:00:19.754Z,93085.28
2022-12-15T07:01:17.709Z,93084.94
2022-12-15T07:02:20.146Z,93088.84
2022-12-15T07:03:20.217Z,93090.53
2022-12-15T07:04:17.149Z,93083.72
2022-12-15T07:05:13.817Z,93086.34
2022-12-15T07:06:13.206Z,93087.41
2022-12-15T07:07:10.840Z,93087.13
2022-12-15T07:08:07.505Z,93098.34
2022-12-15T07:09:07.535Z,93110.09
2022-12-15T07:10:04.691Z,93090.28
2022-12-15T07:11:04.003Z,93110.59
2022-12-15T07:12:00.783Z,93118.81
2022-12-15T07:12:57.927Z,93125.34
2022-12-15T07:13:54.624Z,93123.94
2022-12-15T07:14:53.562Z,93114.31
2022-12-15T07:15:50.736Z,93114.00
2022-12-15T07:16:47.557Z,93113.69
2022-12-15T07:17:44.205Z,93105.03
2022-12-15T07:18:41.413Z,93116.97
2022-12-15T07:19:38.098Z,93116.97
2022-12-15T07:20:34.779Z,93086.63
2022-12-15T07:21:32.314Z,93089.25
2022-12-15T07:22:29.183Z,93092.00
2022-12-15T07:23:46.011Z,93083.78
2022-12-15T07:24:42.316Z,93125.59
2022-12-15T07:25:39.979Z,93101.78
2022-12-15T07:26:36.572Z,93127.78
2022-12-15T07:27:33.243Z,93126.09
2022-12-15T07:28:30.822Z,93126.22
2022-12-15T07:29:27.705Z,93127.34
2022-12-15T07:30:24.309Z,93125.00
2022-12-15T07:31:21.593Z,93133.34
2022-12-15T07:32:18.821Z,93103.25
2022-12-15T07:33:15.985Z,93136.75
2022-12-15T07:34:12.603Z,93142.78
2022-12-15T07:35:09.521Z,93139.84
2022-12-15T07:36:08.279Z,93135.22
2022-12-15T07:37:04.972Z,93079.59
2022-12-15T07:38:01.567Z,93138.34
2022-12-15T07:39:02.842Z,93135.38
2022-12-15T07:39:59.385Z,93130.59
2022-12-15T07:41:00.520Z,93133.84
2022-12-15T07:41:57.076Z,93103.44
2022-12-15T07:42:53.745Z,93141.28
2022-12-15T07:43:50.327Z,93141.56
2022-12-15T07:44:46.970Z,93146.69
2022-12-15T07:45:52.448Z,93159.53
2022-12-15T07:46:49.445Z,93152.91
2022-12-15T07:47:50.274Z,93158.28
2022-12-15T07:48:50.364Z,93139.41
2022-12-15T07:49:47.746Z,93132.72
2022-12-15T07:50:44.673Z,93158.28
2022-12-15T07:51:41.675Z,93164.47
2022-12-15T07:52:38.244Z,93159.19
2022-12-15T07:53:35.925Z,93155.66
2022-12-15T07:54:32.850Z,93135.34
2022-12-15T07:55:57.048Z,93156.13
2022-12-15T07:56:50.187Z,93145.63
2022-12-15T07:57:48.227Z,93159.88
2022-12-15T07:58:45.093Z,93160.31
2022-12-15T07:59:42.074Z,93167.28
2022-12-15T08:00:40.729Z,93174.53
2022-12-15T08:01:40.627Z,93169.59
2022-12-15T08:02:37.399Z,93160.63
2022-12-15T08:03:35.056Z,93169.91
2022-12-15T08:04:32.221Z,93151.03
2022-12-15T08:05:28.936Z,93178.47
2022-12-15T08:06:25.607Z,93179.97
2022-12-15T08:07:22.224Z,93175.47
2022-12-15T08:08:18.813Z,93164.19
2022-12-15T08:09:15.531Z,93188.19
2022-12-15T08:10:12.231Z,93152.13
2022-12-15T08:11:12.004Z,93188.69
2022-12-15T08:12:08.576Z,93186.38
2022-12-15T08:13:05.228Z,93187.63
2022-12-15T08:14:03.541Z,93186.06
2022-12-15T08:15:01.481Z,93129.53
2022-12-15T08:15:58.094Z,93182.50
2022-12-15T08:16:55.068Z,93187.44
2022-12-15T08:17:51.688Z,93192.59
2022-12-15T08:18:49.012Z,93178.00
2022-12-15T08:19:45.765Z,93189.63
2022-12-15T08:20:42.409Z,93202.81
2022-12-15T08:21:40.485Z,93201.72
2022-12-15T08:22:37.982Z,93206.94
2022-12-15T08:23:35.692Z,93207.59
2022-12-15T08:24:32.345Z,93202.47
2022-12-15T08:25:29.030Z,93213.97
2022-12-15T08:26:30.277Z,93208.06
2022-12-15T08:27:27.481Z,93227.75
2022-12-15T08:28:24.183Z,93227.91
2022-12-15T08:30:37.578Z,93235.47
2022-12-15T08:31:34.667Z,93209.75
2022-12-15T08:32:31.339Z,93198.31
2022-12-15T08:33:28.272Z,93244.50
2022-12-15T08:34:25.134Z,93242.94
2022-12-15T08:35:54.420Z,93239.34
2022-12-15T08:36:38.320Z,93247.09
2022-12-15T08:37:34.996Z,93250.69
2022-12-15T08:38:33.123Z,93255.19
2022-12-15T08:39:29.858Z,93257.50
2022-12-15T08:40:26.487Z,93228.16
2022-12-15T08:41:33.550Z,93249.44
2022-12-15T08:42:37.319Z,93254.88
2022-12-15T08:43:34.238Z,93258.91
2022-12-15T08:44:31.573Z,93236.59
2022-12-15T08:45:28.299Z,93264.63
2022-12-15T08:46:36.360Z,93255.44
2022-12-15T08:47:32.957Z,93257.16
2022-12-15T08:48:30.134Z,93245.94
2022-12-15T08:49:26.751Z,93254.63
2022-12-15T08:50:23.371Z,93247.16
2022-12-15T08:51:21.297Z,93248.97
2022-12-15T08:52:17.928Z,93249.59
2022-12-15T08:53:42.579Z,93220.25
2022-12-15T08:54:32.538Z,93249.88
2022-12-15T08:55:29.151Z,93244.31
2022-12-15T08:56:27.609Z,93242.13
2022-12-15T08:57:24.271Z,93248.34
2022-12-15T08:58:21.074Z,93222.00
2022-12-15T08:59:17.840Z,93241.69
2022-12-15T09:00:16.134Z,93235.06
2022-12-15T09:01:23.737Z,93210.41
2022-12-15T09:02:21.036Z,93238.16
2022-12-15T09:03:17.687Z,93227.75
2022-12-15T09:04:14.460Z,93229.28
2022-12-15T09:05:11.174Z,93235.13
2022-12-15T09:06:15.780Z,93234.00
2022-12-15T09:07:12.483Z,93235.91
2022-12-15T09:08:09.154Z,93229.72
2022-12-15T09:09:07.773Z,93196.84
2022-12-15T09:10:04.648Z,93227.41
2022-12-15T09:11:02.261Z,93234.41
2022-12-15T09:11:59.064Z,93222.00
2022-12-15T09:12:55.700Z,93231.47
2022-12-15T09:13:52.515Z,93230.09
2022-12-15T09:14:49.072Z,93226.34
2022-12-15T09:16:09.032Z,93226.69
2022-12-15T09:17:02.407Z,93224.97
2022-12-15T09:17:59.024Z,93233.50
2022-12-15T09:18:57.946Z,93210.88
2022-12-15T09:19:54.563Z,93234.25
2022-12-15T09:20:51.228Z,93237.69
2022-12-15T09:21:48.365Z,93228.66
2022-12-15T09:22:45.006Z,93234.09
2022-12-15T09:23:52.450Z,93235.50
2022-12-15T09:24:49.701Z,93239.50
2022-12-15T09:25:46.734Z,93216.41
2022-12-15T09:26:43.391Z,93235.19
2022-12-15T09:27:39.992Z,93240.91
2022-12-15T09:28:37.999Z,93245.53
2022-12-15T09:29:35.077Z,93242.88
2022-12-15T09:30:31.819Z,93242.25
2022-12-15T09:31:32.810Z,93244.25
2022-12-15T09:32:29.578Z,93235.97
2022-12-15T09:33:26.330Z,93238.63
2022-12-15T09:34:22.969Z,93216.19
2022-12-15T09:35:20.775Z,93243.72
2022-12-15T09:36:17.430Z,93243.25
2022-12-15T09:37:14.077Z,93240.09
2022-12-15T09:38:10.761Z,93248.09
2022-12-15T09:39:08.912Z,93244.50
2022-12-15T09:40:06.696Z,93246.34
2022-12-15T09:41:13.979Z,93258.59
2022-12-15T09:42:24.807Z,93248.53
2022-12-15T09:43:46.469Z,93245.13
2022-12-15T09:44:43.436Z,93263.69
2022-12-15T09:45:43.735Z,93260.19
2022-12-15T09:47:07.124Z,93260.56
2022-12-15T09:48:10.519Z,93252.47
2022-12-15T09:49:48.219Z,93258.81
2022-12-15T09:50:48.077Z,93259.19
2022-12-15T09:51:51.734Z,93203.28
2022-12-15T09:53:00.299Z,93246.59
2022-12-15T09:53:57.383Z,93244.97
2022-12-15T09:54:54.789Z,93206.16
2022-12-15T09:56:00.504Z,93235.03
2022-12-15T09:57:03.524Z,93240.69
2022-12-15T09:58:11.563Z,93254.94
2022-12-15T09:59:34.151Z,93260.81
2022-12-15T10:00:45.636Z,93261.47
2022-12-15T10:01:49.330Z,93258.34
2022-12-15T10:03:05.093Z,93246.44
2022-12-15T10:04:12.736Z,93258.47
2022-12-15T10:06:54.782Z,93261.81
2022-12-15T10:07:51.958Z,93249.31
2022-12-15T10:08:54.556Z,93249.69
2022-12-15T10:09:51.169Z,93257.63
2022-12-15T10:11:02.306Z,93248.91
2022-12-15T10:12:05.248Z,93257.44
2022-12-15T10:13:13.519Z,93212.06
2022-12-15T10:14:28.266Z,93250.81
2022-12-15T10:15:27.545Z,93247.63
2022-12-15T10:16:36.443Z,93245.59
2022-12-15T10:17:52.295Z,93253.31
2022-12-15T10:19:14.118Z,93257.53
2022-12-15T10:20:19.609Z,93237.53
2022-12-15T10:21:16.243Z,93242.75
2022-12-15T10:22:25.942Z,93217.88
2022-12-15T10:23:22.697Z,93237.16
2022-12-15T10:24:59.780Z,93241.81
2022-12-15T10:25:46.905Z,93243.00
2022-12-15T10:26:55.663Z,93163.22
2022-12-15T10:28:33.764Z,93249.34
2022-12-15T10:29:43.249Z,93247.97
2022-12-15T10:30:50.163Z,93251.09
2022-12-15T10:31:54.838Z,93224.44
2022-12-15T10:33:11.440Z,93192.97
2022-12-15T10:34:26.895Z,93245.25
2022-12-15T10:35:28.782Z,93248.91
2022-12-15T10:36:25.438Z,93261.88
2022-12-15T10:37:22.055Z,93258.53
2022-12-15T10:38:42.426Z,93261.09
2022-12-15T10:39:41.636Z,93246.13
2022-12-15T10:41:08.741Z,93266.38
2022-12-15T10:42:17.491Z,93274.19
2022-12-15T10:43:38.521Z,93272.94
2022-12-15T10:44:40.409Z,93267.63
2022-12-15T10:45:39.919Z,93207.00
2022-12-15T10:46:36.573Z,93259.72
2022-12-15T10:47:33.234Z,93262.69
2022-12-15T10:48:30.212Z,93267.03
2022-12-15T10:49:26.775Z,93270.44
2022-12-15T10:50:25.526Z,93266.03
2022-12-15T10:51:31.479Z,93259.19
2022-12-15T10:52:34.239Z,93272.66
2022-12-15T10:53:50.556Z,93258.06
2022-12-15T10:54:49.480Z,93264.94
2022-12-15T10:55:50.066Z,93265.63
2022-12-15T10:56:53.055Z,93259.78
2022-12-15T10:57:59.381Z,93262.56
2022-12-15T10:58:58.944Z,93261.06
2022-12-15T10:59:59.481Z,93251.59
2022-12-15T11:01:17.743Z,93257.50
2022-12-15T11:02:32.852Z,93261.00
2022-12-15T11:03:31.073Z,93253.09
2022-12-15T11:04:32.667Z,93253.78
2022-12-15T11:05:29.370Z,93258.50
2022-12-15T11:06:31.583Z,93258.56
2022-12-15T11:07:37.820Z,93268.16
2022-12-15T11:08:34.953Z,93262.50
2022-12-15T11:09:36.977Z,93264.88
2022-12-15T11:10:52.141Z,93269.75
2022-12-15T11:12:11.932Z,93264.47
2022-12-15T11:13:35.407Z,93260.94
2022-12-15T11:14:43.873Z,93264.44
2022-12-15T11:15:44.278Z,93275.13
2022-12-15T11:16:51.866Z,93245.38
2022-12-15T11:17:57.673Z,93227.53
2022-12-15T11:19:13.965Z,93273.72
2022-12-15T11:20:22.219Z,93257.91
2022-12-15T11:21:28.214Z,93288.31
2022-12-15T11:22:46.163Z,93279.53
2022-12-15T11:24:02.046Z,93271.13
2022-12-15T11:25:05.630Z,93266.84
2022-12-15T11:26:13.756Z,93269.06
2022-12-15T11:27:15.543Z,93266.88
2022-12-15T11:28:20.661Z,93267.00
2022-12-15T11:29:23.502Z,93265.34
2022-12-15T11:30:35.348Z,93261.19
2022-12-15T11:31:41.828Z,93261.13
2022-12-15T11:32:42.914Z,93262.03
2022-12-15T11:33:39.603Z,93274.13
2022-12-15T11:34:39.230Z,93274.31
2022-12-15T11:35:48.930Z,93277.34
2022-12-15T11:37:06.718Z,93277.25
2022-12-15T11:38:24.484Z,93240.97
2022-12-15T11:39:33.315Z,93262.09
2022-12-15T11:40:36.436Z,93259.66
2022-12-15T11:41:41.564Z,93259.41
2022-12-15T11:42:40.859Z,93270.09
2022-12-15T11:43:50.367Z,93269.84
2022-12-15T11:45:07.472Z,93270.50
2022-12-15T11:46:09.959Z,93264.81
2022-12-15T11:47:19.446Z,93275.16
2022-12-15T11:48:20.894Z,93277.59
2022-12-15T11:49:26.792Z,93280.75
2022-12-15T11:50:31.973Z,93281.16
2022-12-15T11:51:58.970Z,93293.31
2022-12-15T11:52:55.623Z,93283.41
2022-12-15T11:54:07.083Z,93278.81
2022-12-15T11:55:14.911Z,93276.06
2022-12-15T11:56:37.081Z,93271.59
2022-12-15T11:57:53.023Z,93281.97
2022-12-15T11:59:22.341Z,93279.78
2022-12-15T12:00:20.786Z,93282.13
2022-12-15T12:01:29.008Z,93279.84
2022-12-15T12:03:03.441Z,93284.53
2022-12-15T12:04:14.971Z,93282.25
2022-12-15T12:05:23.675Z,93283.94
2022-12-15T12:06:32.842Z,93225.69
2022-12-15T12:07:42.103Z,93284.31
2022-12-15T12:08:47.115Z,93288.34
2022-12-15T12:10:01.167Z,93289.50
2022-12-15T12:11:00.450Z,93290.22
2022-12-15T12:12:11.956Z,93291.78
2022-12-15T12:13:17.306Z,93294.81
2022-12-15T12:14:39.125Z,93293.25
2022-12-15T12:15:39.906Z,93288.75
2022-12-15T12:16:42.297Z,93291.91
2022-12-15T12:18:03.152Z,93291.25
2022-12-15T12:19:13.579Z,93295.25
2022-12-15T12:20:27.102Z,93301.63
2022-12-15T12:21:32.941Z,93302.81
2022-12-15T12:23:02.428Z,93308.91
2022-12-15T12:24:04.085Z,93309.84
2022-12-15T12:25:15.457Z,93316.88
2022-12-15T12:26:29.257Z,93307.25
2022-12-15T12:27:50.323Z,93312.72
2022-12-15T12:28:52.808Z,93295.09
2022-12-15T12:29:53.883Z,93313.50
2022-12-15T12:30:52.744Z,93313.44
2022-12-15T12:32:04.023Z,93316.09